createdAt,value
2022-08-21T00:02:35.251Z,101106.56
2022-08-21T00:07:36.873Z,101096.50
2022-08-21T00:12:38.976Z,101099.97
2022-08-21T00:17:40.940Z,101099.13
2022-08-21T00:22:43.694Z,101103.41
2022-08-21T00:27:45.413Z,101085.97
2022-08-21T00:32:46.989Z,101084.72
2022-08-21T00:37:48.867Z,101085.34
2022-08-21T00:42:53.810Z,101090.09
2022-08-21T00:47:55.568Z,101090.13
2022-08-21T00:52:58.203Z,101082.19
2022-08-21T00:58:02.256Z,101086.69
2022-08-21T01:03:09.120Z,101088.16
2022-08-21T01:08:11.614Z,101093.72
2022-08-21T01:13:16.498Z,101092.50
2022-08-21T01:18:18.360Z,101094.72
2022-08-21T01:23:20.013Z,101096.19
2022-08-21T01:28:23.252Z,101094.34
2022-08-21T01:33:25.872Z,101090.66
2022-08-21T01:38:27.700Z,101090.06
2022-08-21T01:43:39.459Z,101092.50
2022-08-21T01:48:43.325Z,101090.69
2022-08-21T01:53:45.017Z,101084.81
2022-08-21T01:58:48.016Z,101080.13
2022-08-21T02:09:54.813Z,101082.97
2022-08-21T02:14:57.645Z,101080.53
2022-08-21T02:19:59.198Z,101082.13
2022-08-21T02:25:01.178Z,101076.03
2022-08-21T02:30:04.174Z,101074.03
2022-08-21T02:35:08.051Z,101069.97
2022-08-21T02:40:10.452Z,101068.13
2022-08-21T02:45:13.593Z,101073.63
2022-08-21T02:50:21.145Z,101071.00
2022-08-21T02:55:26.746Z,101074.03
2022-08-21T03:00:30.830Z,101064.06
2022-08-21T03:05:35.339Z,101072.78
2022-08-21T03:10:42.228Z,101067.31
2022-08-21T03:15:44.040Z,101058.94
2022-08-21T03:20:46.161Z,101062.19
2022-08-21T03:25:49.192Z,101064.81
2022-08-21T03:30:53.234Z,101058.09
2022-08-21T03:36:07.631Z,101073.47
2022-08-21T03:41:10.420Z,101074.66
2022-08-21T03:46:14.917Z,101069.00
2022-08-21T03:51:16.503Z,101070.00
2022-08-21T03:56:18.363Z,101071.38
2022-08-21T04:01:20.126Z,101076.03
2022-08-21T04:06:22.952Z,101074.63
2022-08-21T04:11:25.338Z,101076.59
2022-08-21T04:16:27.071Z,101078.91
2022-08-21T04:21:29.035Z,101083.72
2022-08-21T04:26:31.316Z,101079.19
2022-08-21T04:31:34.340Z,101081.28
2022-08-21T04:36:36.440Z,101091.88
2022-08-21T04:41:38.540Z,101091.44
2022-08-21T04:46:40.440Z,101096.94
2022-08-21T04:51:42.854Z,101099.41
2022-08-21T04:56:52.888Z,101099.84
2022-08-21T05:01:56.054Z,101103.91
2022-08-21T05:07:03.433Z,101116.56
2022-08-21T05:12:05.445Z,101123.94
2022-08-21T05:17:07.455Z,101128.72
2022-08-21T05:22:09.271Z,101125.44
2022-08-21T05:27:11.727Z,101126.53
2022-08-21T05:32:15.392Z,101122.13
2022-08-21T05:37:17.634Z,101122.50
2022-08-21T05:42:22.052Z,101120.44
2022-08-21T05:47:24.263Z,101122.25
2022-08-21T05:52:28.545Z,101122.75
2022-08-21T05:57:30.475Z,101119.81
2022-08-21T06:02:32.026Z,101119.31
2022-08-21T06:07:33.784Z,101134.00
2022-08-21T06:12:35.444Z,101124.56
2022-08-21T06:17:37.163Z,101130.81
2022-08-21T06:22:38.771Z,101134.34
2022-08-21T06:27:40.392Z,101128.69
2022-08-21T06:32:42.584Z,101120.22
2022-08-21T06:37:44.220Z,101121.94
2022-08-21T06:42:45.954Z,101128.53
2022-08-21T06:47:49.294Z,101116.50
2022-08-21T06:52:58.730Z,101124.56
2022-08-21T06:58:00.523Z,101122.19
2022-08-21T07:03:03.140Z,101131.88
2022-08-21T07:08:05.109Z,101132.88
2022-08-21T07:13:07.034Z,101133.44
2022-08-21T07:18:08.980Z,101131.63
2022-08-21T07:23:33.244Z,101130.44
2022-08-21T07:28:35.588Z,101128.66
2022-08-21T07:33:38.039Z,101127.75
2022-08-21T07:38:40.356Z,101124.56
2022-08-21T07:43:46.081Z,101133.41
2022-08-21T07:48:48.075Z,101136.34
2022-08-21T07:53:52.402Z,101129.28
2022-08-21T07:58:54.035Z,101119.72
2022-08-21T08:03:56.346Z,101124.59
2022-08-21T08:08:57.903Z,101128.47
2022-08-21T08:13:59.607Z,101137.44
2022-08-21T08:19:01.494Z,101128.78
2022-08-21T08:24:19.466Z,101133.53
2022-08-21T08:29:22.457Z,101126.38
2022-08-21T08:34:25.643Z,101123.94
2022-08-21T08:39:29.582Z,101109.84
2022-08-21T08:44:31.696Z,101119.91
2022-08-21T08:49:41.082Z,101109.72
2022-08-21T08:54:49.091Z,101094.97
2022-08-21T08:59:53.749Z,101093.97
2022-08-21T09:04:56.763Z,101089.84
2022-08-21T09:10:18.049Z,101090.16
2022-08-21T09:15:58.446Z,101081.56
2022-08-21T09:21:24.848Z,101074.91
2022-08-21T09:26:50.759Z,101068.97
2022-08-21T09:31:52.480Z,101076.63
2022-08-21T09:36:54.472Z,101065.31
2022-08-21T09:42:01.344Z,101070.22
2022-08-21T09:47:03.165Z,101069.72
2022-08-21T09:52:16.425Z,101062.94
2022-08-21T09:57:29.520Z,101046.28
2022-08-21T10:02:36.692Z,101042.28
2022-08-21T10:07:39.146Z,101039.75
2022-08-21T10:12:55.939Z,101038.75
2022-08-21T10:18:26.464Z,101034.72
2022-08-21T10:23:31.038Z,101021.03
2022-08-21T10:28:47.577Z,101020.72
2022-08-21T10:33:52.287Z,101024.66
2022-08-21T10:44:47.592Z,101016.03
2022-08-21T10:50:08.238Z,101017.78
2022-08-21T10:55:15.168Z,101016.03
2022-08-21T11:00:21.425Z,101010.00
2022-08-21T11:05:25.871Z,100998.69
2022-08-21T11:10:37.451Z,100993.47
2022-08-21T11:16:06.323Z,100994.69
2022-08-21T11:21:27.901Z,100990.00
2022-08-21T11:26:42.208Z,100979.44
2022-08-21T11:31:43.658Z,100989.56
2022-08-21T11:37:12.240Z,100986.09
2022-08-21T11:42:31.250Z,100977.16
2022-08-21T11:48:28.834Z,100973.09
2022-08-21T11:53:43.615Z,100976.13
2022-08-21T11:58:54.505Z,100974.16
2022-08-21T12:04:05.156Z,100965.25
2022-08-21T12:09:26.367Z,100961.25
2022-08-21T12:14:48.773Z,100959.00
2022-08-21T12:20:02.227Z,100954.59
2022-08-21T12:25:12.397Z,100949.28
2022-08-21T12:30:29.028Z,100945.09
2022-08-21T12:35:39.982Z,100936.50
2022-08-21T12:40:51.323Z,100939.78
2022-08-21T12:45:53.008Z,100936.38
2022-08-21T12:51:12.744Z,100943.16
2022-08-21T12:56:19.987Z,100939.44
2022-08-21T13:01:37.084Z,100936.88
2022-08-21T13:06:46.591Z,100932.28
2022-08-21T13:11:49.820Z,100928.47
2022-08-21T13:16:59.937Z,100925.63
2022-08-21T13:22:02.861Z,100924.16
2022-08-21T13:27:28.823Z,100917.69
2022-08-21T13:32:33.004Z,100920.09
2022-08-21T13:37:36.067Z,100921.66
2022-08-21T13:42:41.669Z,100911.19
2022-08-21T13:47:46.461Z,100915.31
2022-08-21T13:53:04.577Z,100905.03
2022-08-21T13:58:07.529Z,100909.13
2022-08-21T14:03:11.902Z,100901.97
2022-08-21T14:08:15.631Z,100897.81
2022-08-21T14:13:44.626Z,100894.38
2022-08-21T14:19:03.750Z,100888.09
2022-08-21T14:24:15.187Z,100887.16
2022-08-21T14:29:25.178Z,100888.09
2022-08-21T14:34:34.097Z,100894.00
2022-08-21T14:39:40.687Z,100890.47
2022-08-21T14:44:45.404Z,100882.81
2022-08-21T14:49:47.040Z,100883.84
2022-08-21T14:54:48.613Z,100883.66
2022-08-21T14:59:50.339Z,100881.22
2022-08-21T15:04:52.141Z,100871.59
2022-08-21T15:09:53.936Z,100879.25
2022-08-21T15:14:55.668Z,100878.38
2022-08-21T15:19:57.367Z,100881.00
2022-08-21T15:24:58.941Z,100882.59
2022-08-21T15:30:00.762Z,100880.56
2022-08-21T15:35:02.752Z,100878.78
2022-08-21T15:40:07.047Z,100882.50
2022-08-21T15:45:10.967Z,100878.41
2022-08-21T15:50:13.654Z,100879.00
2022-08-21T15:55:15.989Z,100884.56
2022-08-21T16:00:24.160Z,100876.25
2022-08-21T16:05:25.961Z,100868.75
2022-08-21T16:10:30.090Z,100876.88
2022-08-21T16:15:32.526Z,100869.97
2022-08-21T16:20:34.269Z,100866.97
2022-08-21T16:25:39.973Z,100863.41
2022-08-21T16:30:44.393Z,100869.06
2022-08-21T16:35:47.603Z,100859.44
2022-08-21T16:40:49.500Z,100866.56
2022-08-21T16:45:51.391Z,100863.59
2022-08-21T16:50:53.180Z,100866.88
2022-08-21T16:55:55.041Z,100867.63
2022-08-21T17:00:58.200Z,100867.13
2022-08-21T17:06:00.964Z,100873.66
2022-08-21T17:11:05.006Z,100869.16
2022-08-21T17:16:06.935Z,100865.91
2022-08-21T17:21:08.557Z,100869.00
2022-08-21T17:26:11.571Z,100862.53
2022-08-21T17:31:14.727Z,100865.28
2022-08-21T17:36:18.649Z,100867.03
2022-08-21T17:41:21.498Z,100866.75
2022-08-21T17:46:29.768Z,100863.97
2022-08-21T17:51:31.752Z,100868.22
2022-08-21T17:56:37.581Z,100868.50
2022-08-21T18:01:42.184Z,100878.06
2022-08-21T18:06:44.507Z,100871.47
2022-08-21T18:11:46.520Z,100884.16
2022-08-21T18:16:49.675Z,100878.16
2022-08-21T18:21:55.751Z,100880.13
2022-08-21T18:26:57.433Z,100883.97
2022-08-21T18:31:59.238Z,100889.94
2022-08-21T18:37:02.307Z,100893.72
2022-08-21T18:42:09.680Z,100898.88
2022-08-21T18:47:18.175Z,100897.84
2022-08-21T18:52:20.933Z,100899.22
2022-08-21T18:57:28.260Z,100904.28
2022-08-21T19:02:30.307Z,100911.53
2022-08-21T19:07:32.124Z,100908.03
2022-08-21T19:12:34.462Z,100909.97
2022-08-21T19:17:37.832Z,100915.00
2022-08-21T19:22:40.821Z,100915.81
2022-08-21T19:27:43.204Z,100912.34
2022-08-21T19:32:47.750Z,100909.13
2022-08-21T19:37:49.417Z,100917.16
2022-08-21T19:42:54.221Z,100917.66
2022-08-21T19:47:56.126Z,100922.22
2022-08-21T19:53:00.802Z,100918.72
2022-08-21T19:58:04.610Z,100917.13
2022-08-21T20:03:07.179Z,100917.94
2022-08-21T20:08:20.295Z,100917.94
2022-08-21T20:13:23.316Z,100921.13
2022-08-21T20:18:26.732Z,100932.34
2022-08-21T20:28:51.650Z,100935.81
2022-08-21T20:33:53.475Z,100929.91
2022-08-21T20:38:56.395Z,100938.19
2022-08-21T20:43:59.921Z,100932.50
2022-08-21T20:49:02.496Z,100934.06
2022-08-21T20:54:35.232Z,100935.69
2022-08-21T20:59:58.507Z,100934.06
2022-08-21T21:05:05.815Z,100934.81
2022-08-21T21:10:24.887Z,100934.84
2022-08-21T21:15:33.304Z,100930.88
2022-08-21T21:20:45.756Z,100941.19
2022-08-21T21:25:57.546Z,100923.81
2022-08-21T21:30:59.165Z,100933.97
2022-08-21T21:36:16.433Z,100934.97
2022-08-21T21:41:35.420Z,100934.09
2022-08-21T21:46:50.708Z,100938.34
2022-08-21T21:52:33.048Z,100936.38
2022-08-21T21:57:58.837Z,100939.81
2022-08-21T22:03:16.488Z,100937.41
2022-08-21T22:14:03.050Z,100939.66
2022-08-21T22:19:26.925Z,100954.31
2022-08-21T22:24:32.495Z,100953.47
2022-08-21T22:30:03.517Z,100945.38
2022-08-21T22:35:23.599Z,100952.19
2022-08-21T22:40:32.355Z,100946.19
2022-08-21T22:46:08.865Z,100961.25
2022-08-21T22:56:59.747Z,100967.56
2022-08-21T23:02:07.646Z,100961.53
2022-08-21T23:07:33.784Z,100964.69
2022-08-21T23:12:43.731Z,100962.09
2022-08-21T23:17:55.058Z,100956.69
2022-08-21T23:23:27.435Z,100948.63
2022-08-21T23:28:41.767Z,100943.63
2022-08-21T23:33:51.916Z,100946.13
2022-08-21T23:45:31.616Z,100938.34
2022-08-21T23:50:48.371Z,100940.34
2022-08-21T23:55:55.254Z,100943.38
